sensor_id;sensor_type;location;lat;lon;timestamp;temperature;humidity
22787;DHT22;63134;52.020;4.714;2023-04-01T00:01:02;11.50;99.90
22787;DHT22;63134;52.020;4.714;2023-04-01T00:03:49;11.50;99.90
22787;DHT22;63134;52.020;4.714;2023-04-01T00:06:34;11.40;99.90
22787;DHT22;63134;52.020;4.714;2023-04-01T00:09:20;11.40;99.90
22787;DHT22;63134;52.020;4.714;2023-04-01T00:12:06;11.40;99.90
22787;DHT22;63134;52.020;4.714;2023-04-01T00:14:55;11.40;99.90
22787;DHT22;63134;52.020;4.714;2023-04-01T00:17:40;11.30;99.90
22787;DHT22;63134;52.020;4.714;2023-04-01T00:20:29;11.30;99.90
22787;DHT22;63134;52.020;4.714;2023-04-01T00:23:15;11.20;99.90
22787;DHT22;63134;52.020;4.714;2023-04-01T00:26:02;11.20;99.90
22787;DHT22;63134;52.020;4.714;2023-04-01T00:28:49;11.20;99.90
22787;DHT22;63134;52.020;4.714;2023-04-01T00:31:34;11.20;99.90
22787;DHT22;63134;52.020;4.714;2023-04-01T00:34:20;11.20;99.90
22787;DHT22;63134;52.020;4.714;2023-04-01T00:37:07;11.20;99.90
22787;DHT22;63134;52.020;4.714;2023-04-01T00:39:53;11.20;99.90
22787;DHT22;63134;52.020;4.714;2023-04-01T00:42:39;11.20;99.90
22787;DHT22;63134;52.020;4.714;2023-04-01T00:45:34;11.10;99.90
22787;DHT22;63134;52.020;4.714;2023-04-01T00:48:28;11.10;99.90
22787;DHT22;63134;52.020;4.714;2023-04-01T00:51:17;11.10;99.90
22787;DHT22;63134;52.020;4.714;2023-04-01T00:54:04;11.10;99.90
22787;DHT22;63134;52.020;4.714;2023-04-01T00:57:02;11.10;99.90
22787;DHT22;63134;52.020;4.714;2023-04-01T00:59:51;11.10;99.90
22787;DHT22;63134;52.020;4.714;2023-04-01T01:02:38;11.10;99.90
22787;DHT22;63134;52.020;4.714;2023-04-01T01:09:07;11.10;99.90
22787;DHT22;63134;52.020;4.714;2023-04-01T01:15:12;11.10;99.90
22787;DHT22;63134;52.020;4.714;2023-04-01T01:21:30;11.00;99.90
22787;DHT22;63134;52.020;4.714;2023-04-01T01:27:56;11.00;99.90
22787;DHT22;63134;52.020;4.714;2023-04-01T01:30:57;11.00;99.90
22787;DHT22;63134;52.020;4.714;2023-04-01T01:37:07;11.00;99.90
22787;DHT22;63134;52.020;4.714;2023-04-01T01:40:01;11.00;99.90
22787;DHT22;63134;52.020;4.714;2023-04-01T01:42:52;10.90;99.90
22787;DHT22;63134;52.020;4.714;2023-04-01T01:45:46;10.90;99.90
22787;DHT22;63134;52.020;4.714;2023-04-01T01:48:36;11.00;99.90
22787;DHT22;63134;52.020;4.714;2023-04-01T01:51:23;10.90;99.90
22787;DHT22;63134;52.020;4.714;2023-04-01T01:54:13;11.00;99.90
22787;DHT22;63134;52.020;4.714;2023-04-01T01:57:07;11.00;99.90
22787;DHT22;63134;52.020;4.714;2023-04-01T02:00:07;10.90;99.90
22787;DHT22;63134;52.020;4.714;2023-04-01T02:03:01;11.00;99.90
22787;DHT22;63134;52.020;4.714;2023-04-01T02:05:50;11.00;99.90
22787;DHT22;63134;52.020;4.714;2023-04-01T02:08:49;11.00;99.90
22787;DHT22;63134;52.020;4.714;2023-04-01T02:11:45;11.00;99.90
22787;DHT22;63134;52.020;4.714;2023-04-01T02:17:32;11.00;99.90
22787;DHT22;63134;52.020;4.714;2023-04-01T02:20:22;11.00;99.90
22787;DHT22;63134;52.020;4.714;2023-04-01T02:23:10;11.10;99.90
22787;DHT22;63134;52.020;4.714;2023-04-01T02:25:57;11.10;99.90
22787;DHT22;63134;52.020;4.714;2023-04-01T02:28:43;11.10;99.90
22787;DHT22;63134;52.020;4.714;2023-04-01T02:31:31;11.10;99.90
22787;DHT22;63134;52.020;4.714;2023-04-01T02:34:18;11.10;99.90
22787;DHT22;63134;52.020;4.714;2023-04-01T02:37:04;11.10;99.90
22787;DHT22;63134;52.020;4.714;2023-04-01T02:39:50;11.10;99.90
22787;DHT22;63134;52.020;4.714;2023-04-01T02:42:36;11.10;99.90
22787;DHT22;63134;52.020;4.714;2023-04-01T02:45:22;11.10;99.90
22787;DHT22;63134;52.020;4.714;2023-04-01T02:48:07;11.10;99.90
22787;DHT22;63134;52.020;4.714;2023-04-01T02:50:53;11.20;99.90
22787;DHT22;63134;52.020;4.714;2023-04-01T02:53:39;11.20;99.90
22787;DHT22;63134;52.020;4.714;2023-04-01T02:56:24;11.20;99.90
22787;DHT22;63134;52.020;4.714;2023-04-01T02:59:14;11.20;99.90
22787;DHT22;63134;52.020;4.714;2023-04-01T03:02:00;11.20;99.90
22787;DHT22;63134;52.020;4.714;2023-04-01T03:04:45;11.20;99.90
22787;DHT22;63134;52.020;4.714;2023-04-01T03:07:30;11.30;99.90
22787;DHT22;63134;52.020;4.714;2023-04-01T03:10:16;11.30;99.90
22787;DHT22;63134;52.020;4.714;2023-04-01T03:13:02;11.40;99.90
22787;DHT22;63134;52.020;4.714;2023-04-01T03:15:47;11.40;99.90
22787;DHT22;63134;52.020;4.714;2023-04-01T03:18:36;11.40;99.90
22787;DHT22;63134;52.020;4.714;2023-04-01T03:21:24;11.40;99.90
22787;DHT22;63134;52.020;4.714;2023-04-01T03:24:09;11.50;99.90
22787;DHT22;63134;52.020;4.714;2023-04-01T03:26:55;11.50;99.90
22787;DHT22;63134;52.020;4.714;2023-04-01T03:29:40;11.50;99.90
22787;DHT22;63134;52.020;4.714;2023-04-01T03:32:26;11.50;99.90
22787;DHT22;63134;52.020;4.714;2023-04-01T03:35:13;11.50;99.90
22787;DHT22;63134;52.020;4.714;2023-04-01T03:37:59;11.50;99.90
22787;DHT22;63134;52.020;4.714;2023-04-01T03:40:52;11.50;99.90
22787;DHT22;63134;52.020;4.714;2023-04-01T03:43:38;11.60;99.90
22787;DHT22;63134;52.020;4.714;2023-04-01T03:46:24;11.60;99.90
22787;DHT22;63134;52.020;4.714;2023-04-01T03:49:10;11.60;99.90
22787;DHT22;63134;52.020;4.714;2023-04-01T03:51:56;11.60;99.90
22787;DHT22;63134;52.020;4.714;2023-04-01T03:54:42;11.70;99.90
22787;DHT22;63134;52.020;4.714;2023-04-01T03:57:28;11.70;99.90
22787;DHT22;63134;52.020;4.714;2023-04-01T04:00:22;11.70;99.90
22787;DHT22;63134;52.020;4.714;2023-04-01T04:03:12;11.70;99.90
22787;DHT22;63134;52.020;4.714;2023-04-01T04:05:57;11.70;99.90
22787;DHT22;63134;52.020;4.714;2023-04-01T04:08:43;11.70;99.90
22787;DHT22;63134;52.020;4.714;2023-04-01T04:11:32;11.70;99.90
22787;DHT22;63134;52.020;4.714;2023-04-01T04:14:20;11.80;99.90
22787;DHT22;63134;52.020;4.714;2023-04-01T04:17:06;11.80;99.90
22787;DHT22;63134;52.020;4.714;2023-04-01T04:19:53;11.80;99.90
22787;DHT22;63134;52.020;4.714;2023-04-01T04:22:39;11.80;99.90
22787;DHT22;63134;52.020;4.714;2023-04-01T04:25:26;11.80;99.90
22787;DHT22;63134;52.020;4.714;2023-04-01T04:28:13;11.80;99.90
22787;DHT22;63134;52.020;4.714;2023-04-01T04:31:02;11.80;99.90
22787;DHT22;63134;52.020;4.714;2023-04-01T04:33:52;11.80;99.90
22787;DHT22;63134;52.020;4.714;2023-04-01T04:36:38;11.80;99.90
22787;DHT22;63134;52.020;4.714;2023-04-01T04:39:24;11.80;99.90
22787;DHT22;63134;52.020;4.714;2023-04-01T04:42:10;11.80;99.90
22787;DHT22;63134;52.020;4.714;2023-04-01T04:44:57;11.80;99.90
22787;DHT22;63134;52.020;4.714;2023-04-01T04:47:43;11.80;99.90
22787;DHT22;63134;52.020;4.714;2023-04-01T04:50:30;11.70;99.90
22787;DHT22;63134;52.020;4.714;2023-04-01T04:53:18;11.70;99.90
22787;DHT22;63134;52.020;4.714;2023-04-01T04:56:04;11.70;99.90
22787;DHT22;63134;52.020;4.714;2023-04-01T04:59:00;11.80;99.90
22787;DHT22;63134;52.020;4.714;2023-04-01T05:01:58;11.80;99.90
22787;DHT22;63134;52.020;4.714;2023-04-01T05:04:43;11.70;99.90
22787;DHT22;63134;52.020;4.714;2023-04-01T05:07:30;11.70;99.90
22787;DHT22;63134;52.020;4.714;2023-04-01T05:10:16;11.70;99.90
22787;DHT22;63134;52.020;4.714;2023-04-01T05:13:03;11.70;99.90
22787;DHT22;63134;52.020;4.714;2023-04-01T05:15:49;11.70;99.90
22787;DHT22;63134;52.020;4.714;2023-04-01T05:18:35;11.70;99.90
22787;DHT22;63134;52.020;4.714;2023-04-01T05:21:21;11.70;99.90
22787;DHT22;63134;52.020;4.714;2023-04-01T05:24:11;11.60;99.90
22787;DHT22;63134;52.020;4.714;2023-04-01T05:26:58;11.60;99.90
22787;DHT22;63134;52.020;4.714;2023-04-01T05:29:46;11.60;99.90
22787;DHT22;63134;52.020;4.714;2023-04-01T05:32:52;11.60;99.90
22787;DHT22;63134;52.020;4.714;2023-04-01T05:35:38;11.60;99.90
22787;DHT22;63134;52.020;4.714;2023-04-01T05:38:24;11.60;99.90
22787;DHT22;63134;52.020;4.714;2023-04-01T05:41:09;11.60;99.90
22787;DHT22;63134;52.020;4.714;2023-04-01T05:43:59;11.60;99.90
22787;DHT22;63134;52.020;4.714;2023-04-01T05:46:57;11.60;99.90
22787;DHT22;63134;52.020;4.714;2023-04-01T05:49:44;11.60;99.90
22787;DHT22;63134;52.020;4.714;2023-04-01T05:52:32;11.60;99.90
22787;DHT22;63134;52.020;4.714;2023-04-01T05:55:19;11.60;99.90
22787;DHT22;63134;52.020;4.714;2023-04-01T05:58:08;11.60;99.90
22787;DHT22;63134;52.020;4.714;2023-04-01T06:01:04;11.60;99.90
22787;DHT22;63134;52.020;4.714;2023-04-01T06:03:57;11.60;99.90
22787;DHT22;63134;52.020;4.714;2023-04-01T06:06:44;11.60;99.90
22787;DHT22;63134;52.020;4.714;2023-04-01T06:09:31;11.70;99.90
22787;DHT22;63134;52.020;4.714;2023-04-01T06:12:40;11.70;99.90
22787;DHT22;63134;52.020;4.714;2023-04-01T06:16:00;11.70;99.90
22787;DHT22;63134;52.020;4.714;2023-04-01T06:22:17;11.70;99.90
22787;DHT22;63134;52.020;4.714;2023-04-01T06:25:33;11.80;99.90
22787;DHT22;63134;52.020;4.714;2023-04-01T06:28:49;11.70;99.90
22787;DHT22;63134;52.020;4.714;2023-04-01T06:31:56;11.70;99.90
22787;DHT22;63134;52.020;4.714;2023-04-01T06:35:19;11.70;99.90
22787;DHT22;63134;52.020;4.714;2023-04-01T06:38:41;11.70;99.90
22787;DHT22;63134;52.020;4.714;2023-04-01T06:45:06;11.70;99.90
22787;DHT22;63134;52.020;4.714;2023-04-01T06:51:59;11.80;99.90
22787;DHT22;63134;52.020;4.714;2023-04-01T06:55:29;11.80;99.90
22787;DHT22;63134;52.020;4.714;2023-04-01T06:58:37;11.70;99.90
22787;DHT22;63134;52.020;4.714;2023-04-01T07:01:39;11.70;99.90
22787;DHT22;63134;52.020;4.714;2023-04-01T07:04:37;11.70;99.90
22787;DHT22;63134;52.020;4.714;2023-04-01T07:07:36;11.70;99.90
22787;DHT22;63134;52.020;4.714;2023-04-01T07:13:47;11.70;99.90
22787;DHT22;63134;52.020;4.714;2023-04-01T07:16:43;11.80;99.90
22787;DHT22;63134;52.020;4.714;2023-04-01T07:19:45;11.70;99.90
22787;DHT22;63134;52.020;4.714;2023-04-01T07:22:38;11.80;99.90
22787;DHT22;63134;52.020;4.714;2023-04-01T07:25:39;11.80;99.90
22787;DHT22;63134;52.020;4.714;2023-04-01T07:28:43;11.90;99.90
22787;DHT22;63134;52.020;4.714;2023-04-01T07:36:06;11.90;99.90
22787;DHT22;63134;52.020;4.714;2023-04-01T07:38:41;11.90;99.90
22787;DHT22;63134;52.020;4.714;2023-04-01T07:41:49;12.00;99.90
22787;DHT22;63134;52.020;4.714;2023-04-01T07:45:05;12.10;99.90
22787;DHT22;63134;52.020;4.714;2023-04-01T07:48:29;12.10;99.90
22787;DHT22;63134;52.020;4.714;2023-04-01T07:57:40;12.20;99.90
22787;DHT22;63134;52.020;4.714;2023-04-01T08:06:51;12.30;99.90
22787;DHT22;63134;52.020;4.714;2023-04-01T08:13:30;12.20;99.90
22787;DHT22;63134;52.020;4.714;2023-04-01T08:17:12;12.30;99.90
22787;DHT22;63134;52.020;4.714;2023-04-01T08:29:09;12.40;99.90
22787;DHT22;63134;52.020;4.714;2023-04-01T08:32:10;12.50;99.90
22787;DHT22;63134;52.020;4.714;2023-04-01T08:35:38;12.50;99.90
22787;DHT22;63134;52.020;4.714;2023-04-01T08:38:52;12.50;99.90
22787;DHT22;63134;52.020;4.714;2023-04-01T08:45:34;12.50;99.90
22787;DHT22;63134;52.020;4.714;2023-04-01T08:48:42;12.50;99.90
22787;DHT22;63134;52.020;4.714;2023-04-01T08:52:07;12.50;99.90
22787;DHT22;63134;52.020;4.714;2023-04-01T09:30:33;13.10;99.90
22787;DHT22;63134;52.020;4.714;2023-04-01T09:37:20;13.30;99.90
22787;DHT22;63134;52.020;4.714;2023-04-01T09:50:33;13.20;99.90
22787;DHT22;63134;52.020;4.714;2023-04-01T09:53:36;13.20;99.90
22787;DHT22;63134;52.020;4.714;2023-04-01T10:03:34;13.50;99.90
22787;DHT22;63134;52.020;4.714;2023-04-01T10:06:41;13.60;99.90
22787;DHT22;63134;52.020;4.714;2023-04-01T10:09:57;13.60;99.90
22787;DHT22;63134;52.020;4.714;2023-04-01T10:16:22;13.60;99.90
22787;DHT22;63134;52.020;4.714;2023-04-01T10:28:54;13.80;99.90
22787;DHT22;63134;52.020;4.714;2023-04-01T10:49:27;13.70;99.50
22787;DHT22;63134;52.020;4.714;2023-04-01T10:52:39;13.50;99.50
22787;DHT22;63134;52.020;4.714;2023-04-01T10:56:15;13.60;99.90
22787;DHT22;63134;52.020;4.714;2023-04-01T11:26:33;13.70;99.90
22787;DHT22;63134;52.020;4.714;2023-04-01T11:36:00;13.90;99.90
22787;DHT22;63134;52.020;4.714;2023-04-01T11:42:44;13.90;99.90
22787;DHT22;63134;52.020;4.714;2023-04-01T11:46:02;13.80;99.90
22787;DHT22;63134;52.020;4.714;2023-04-01T11:52:08;14.00;99.90
22787;DHT22;63134;52.020;4.714;2023-04-01T11:55:10;14.10;99.90
22787;DHT22;63134;52.020;4.714;2023-04-01T12:01:01;14.30;99.90
22787;DHT22;63134;52.020;4.714;2023-04-01T12:04:00;14.30;99.90
22787;DHT22;63134;52.020;4.714;2023-04-01T12:07:06;14.40;99.90
22787;DHT22;63134;52.020;4.714;2023-04-01T12:10:15;14.50;99.20
22787;DHT22;63134;52.020;4.714;2023-04-01T12:26:03;14.70;98.70
22787;DHT22;63134;52.020;4.714;2023-04-01T12:32:31;14.90;98.10
22787;DHT22;63134;52.020;4.714;2023-04-01T12:41:32;15.30;97.80
22787;DHT22;63134;52.020;4.714;2023-04-01T12:48:37;15.30;97.10
22787;DHT22;63134;52.020;4.714;2023-04-01T13:10:56;15.30;94.20
22787;DHT22;63134;52.020;4.714;2023-04-01T13:14:04;15.00;93.90
22787;DHT22;63134;52.020;4.714;2023-04-01T13:26:18;14.40;94.70
22787;DHT22;63134;52.020;4.714;2023-04-01T13:29:14;14.30;94.70
22787;DHT22;63134;52.020;4.714;2023-04-01T13:32:27;14.30;95.10
22787;DHT22;63134;52.020;4.714;2023-04-01T13:44:42;13.80;95.20
22787;DHT22;63134;52.020;4.714;2023-04-01T14:13:06;14.00;96.80
22787;DHT22;63134;52.020;4.714;2023-04-01T14:26:16;14.00;96.10
22787;DHT22;63134;52.020;4.714;2023-04-01T14:29:30;13.90;95.90
22787;DHT22;63134;52.020;4.714;2023-04-01T14:35:49;13.80;96.30
22787;DHT22;63134;52.020;4.714;2023-04-01T14:50:49;14.00;97.20
22787;DHT22;63134;52.020;4.714;2023-04-01T14:53:38;14.00;96.90
22787;DHT22;63134;52.020;4.714;2023-04-01T14:56:47;13.90;96.90
22787;DHT22;63134;52.020;4.714;2023-04-01T14:59:39;13.80;96.30
22787;DHT22;63134;52.020;4.714;2023-04-01T15:02:33;13.60;96.40
22787;DHT22;63134;52.020;4.714;2023-04-01T15:11:47;13.40;96.80
22787;DHT22;63134;52.020;4.714;2023-04-01T15:18:59;13.30;97.20
22787;DHT22;63134;52.020;4.714;2023-04-01T15:24:40;13.10;97.10
22787;DHT22;63134;52.020;4.714;2023-04-01T15:27:50;13.00;97.50
22787;DHT22;63134;52.020;4.714;2023-04-01T15:31:22;13.00;97.50
22787;DHT22;63134;52.020;4.714;2023-04-01T15:37:15;13.00;98.00
22787;DHT22;63134;52.020;4.714;2023-04-01T15:40:20;13.00;98.00
22787;DHT22;63134;52.020;4.714;2023-04-01T15:49:35;12.90;98.20
22787;DHT22;63134;52.020;4.714;2023-04-01T15:53:08;12.80;98.10
22787;DHT22;63134;52.020;4.714;2023-04-01T15:56:11;12.80;98.50
22787;DHT22;63134;52.020;4.714;2023-04-01T15:59:17;12.80;98.70
22787;DHT22;63134;52.020;4.714;2023-04-01T16:05:32;12.80;98.50
22787;DHT22;63134;52.020;4.714;2023-04-01T16:11:57;12.80;98.60
22787;DHT22;63134;52.020;4.714;2023-04-01T16:15:08;12.70;98.10
22787;DHT22;63134;52.020;4.714;2023-04-01T16:18:14;12.50;98.10
22787;DHT22;63134;52.020;4.714;2023-04-01T16:21:27;12.40;98.20
22787;DHT22;63134;52.020;4.714;2023-04-01T16:31:06;12.20;98.90
22787;DHT22;63134;52.020;4.714;2023-04-01T16:34:42;12.20;99.20
22787;DHT22;63134;52.020;4.714;2023-04-01T16:37:17;12.20;99.20
22787;DHT22;63134;52.020;4.714;2023-04-01T16:43:30;12.20;99.60
22787;DHT22;63134;52.020;4.714;2023-04-01T16:46:40;12.20;99.80
22787;DHT22;63134;52.020;4.714;2023-04-01T16:49:32;12.20;99.70
22787;DHT22;63134;52.020;4.714;2023-04-01T16:55:24;12.20;99.80
22787;DHT22;63134;52.020;4.714;2023-04-01T16:58:25;12.10;99.80
22787;DHT22;63134;52.020;4.714;2023-04-01T17:01:21;12.10;99.70
22787;DHT22;63134;52.020;4.714;2023-04-01T17:10:53;12.10;99.50
22787;DHT22;63134;52.020;4.714;2023-04-01T17:16:50;12.00;99.30
22787;DHT22;63134;52.020;4.714;2023-04-01T17:19:52;12.00;99.40
22787;DHT22;63134;52.020;4.714;2023-04-01T17:26:11;12.00;99.30
22787;DHT22;63134;52.020;4.714;2023-04-01T17:29:38;12.00;99.00
22787;DHT22;63134;52.020;4.714;2023-04-01T17:32:55;11.90;98.90
22787;DHT22;63134;52.020;4.714;2023-04-01T17:52:42;11.70;98.60
22787;DHT22;63134;52.020;4.714;2023-04-01T17:55:45;11.70;98.70
22787;DHT22;63134;52.020;4.714;2023-04-01T18:01:41;11.60;98.80
22787;DHT22;63134;52.020;4.714;2023-04-01T18:04:54;11.60;98.70
22787;DHT22;63134;52.020;4.714;2023-04-01T18:08:13;11.60;98.70
22787;DHT22;63134;52.020;4.714;2023-04-01T18:18:18;11.50;98.60
22787;DHT22;63134;52.020;4.714;2023-04-01T18:27:29;11.40;98.60
22787;DHT22;63134;52.020;4.714;2023-04-01T18:39:23;11.30;98.80
22787;DHT22;63134;52.020;4.714;2023-04-01T18:45:43;11.30;98.90
22787;DHT22;63134;52.020;4.714;2023-04-01T18:48:52;11.30;98.90
22787;DHT22;63134;52.020;4.714;2023-04-01T18:51:49;11.20;98.90
22787;DHT22;63134;52.020;4.714;2023-04-01T18:54:47;11.20;99.10
22787;DHT22;63134;52.020;4.714;2023-04-01T18:58:18;11.20;99.20
22787;DHT22;63134;52.020;4.714;2023-04-01T19:01:28;11.20;99.50
22787;DHT22;63134;52.020;4.714;2023-04-01T19:04:33;11.20;99.20
22787;DHT22;63134;52.020;4.714;2023-04-01T19:10:40;11.20;99.30
22787;DHT22;63134;52.020;4.714;2023-04-01T19:16:50;11.20;99.20
22787;DHT22;63134;52.020;4.714;2023-04-01T19:23:07;11.10;99.10
22787;DHT22;63134;52.020;4.714;2023-04-01T19:26:05;11.20;98.90
22787;DHT22;63134;52.020;4.714;2023-04-01T19:32:14;11.10;98.60
22787;DHT22;63134;52.020;4.714;2023-04-01T19:35:19;11.10;98.30
22787;DHT22;63134;52.020;4.714;2023-04-01T19:38:20;11.00;98.10
22787;DHT22;63134;52.020;4.714;2023-04-01T19:41:14;11.00;98.10
22787;DHT22;63134;52.020;4.714;2023-04-01T19:44:41;10.90;97.90
22787;DHT22;63134;52.020;4.714;2023-04-01T19:47:39;10.90;97.90
22787;DHT22;63134;52.020;4.714;2023-04-01T19:50:52;10.90;97.80
22787;DHT22;63134;52.020;4.714;2023-04-01T20:00:51;10.80;97.40
22787;DHT22;63134;52.020;4.714;2023-04-01T20:03:55;10.70;97.30
22787;DHT22;63134;52.020;4.714;2023-04-01T20:06:57;10.70;97.30
22787;DHT22;63134;52.020;4.714;2023-04-01T20:09:53;10.70;97.10
22787;DHT22;63134;52.020;4.714;2023-04-01T20:13:04;10.60;97.30
22787;DHT22;63134;52.020;4.714;2023-04-01T20:16:06;10.60;97.00
22787;DHT22;63134;52.020;4.714;2023-04-01T20:18:56;10.60;97.00
22787;DHT22;63134;52.020;4.714;2023-04-01T20:21:46;10.60;96.90
22787;DHT22;63134;52.020;4.714;2023-04-01T20:24:44;10.50;96.90
22787;DHT22;63134;52.020;4.714;2023-04-01T20:27:39;10.60;97.00
22787;DHT22;63134;52.020;4.714;2023-04-01T20:40:00;10.50;96.70
22787;DHT22;63134;52.020;4.714;2023-04-01T20:55:26;10.30;96.10
22787;DHT22;63134;52.020;4.714;2023-04-01T21:01:54;10.30;96.10
22787;DHT22;63134;52.020;4.714;2023-04-01T21:14:54;10.20;96.20
22787;DHT22;63134;52.020;4.714;2023-04-01T21:18:21;10.20;96.20
22787;DHT22;63134;52.020;4.714;2023-04-01T21:24:28;10.10;95.80
22787;DHT22;63134;52.020;4.714;2023-04-01T21:36:46;10.00;95.70
22787;DHT22;63134;52.020;4.714;2023-04-01T21:55:42;9.80;95.20
22787;DHT22;63134;52.020;4.714;2023-04-01T22:11:53;9.70;95.10
22787;DHT22;63134;52.020;4.714;2023-04-01T22:18:05;9.60;94.90
22787;DHT22;63134;52.020;4.714;2023-04-01T22:36:20;9.50;95.00
22787;DHT22;63134;52.020;4.714;2023-04-01T22:39:21;9.50;95.10
22787;DHT22;63134;52.020;4.714;2023-04-01T22:42:39;9.40;95.00
22787;DHT22;63134;52.020;4.714;2023-04-01T22:45:53;9.40;95.00
22787;DHT22;63134;52.020;4.714;2023-04-01T22:55:20;9.40;95.10
22787;DHT22;63134;52.020;4.714;2023-04-01T22:58:14;9.30;95.10
22787;DHT22;63134;52.020;4.714;2023-04-01T23:01:06;9.30;95.00
22787;DHT22;63134;52.020;4.714;2023-04-01T23:03:53;9.30;95.00
22787;DHT22;63134;52.020;4.714;2023-04-01T23:06:44;9.30;95.00
22787;DHT22;63134;52.020;4.714;2023-04-01T23:09:33;9.30;95.00
22787;DHT22;63134;52.020;4.714;2023-04-01T23:12:19;9.30;95.00
22787;DHT22;63134;52.020;4.714;2023-04-01T23:15:13;9.30;95.00
22787;DHT22;63134;52.020;4.714;2023-04-01T23:24:28;9.20;94.90
22787;DHT22;63134;52.020;4.714;2023-04-01T23:27:23;9.20;94.80
22787;DHT22;63134;52.020;4.714;2023-04-01T23:33:30;9.20;94.70
22787;DHT22;63134;52.020;4.714;2023-04-01T23:36:16;9.20;94.70
22787;DHT22;63134;52.020;4.714;2023-04-01T23:42:12;9.10;94.60
22787;DHT22;63134;52.020;4.714;2023-04-01T23:45:14;9.10;94.70
22787;DHT22;63134;52.020;4.714;2023-04-01T23:48:02;9.10;94.80
22787;DHT22;63134;52.020;4.714;2023-04-01T23:50:47;9.10;94.80
22787;DHT22;63134;52.020;4.714;2023-04-01T23:53:34;9.10;94.90
22787;DHT22;63134;52.020;4.714;2023-04-01T23:56:20;9.10;94.80
22787;DHT22;63134;52.020;4.714;2023-04-01T23:59:16;9.00;94.70
